sensor_id;sensor_type;location;lat;lon;timestamp;P1;durP1;ratioP1;P2;durP2;ratioP2
73733;SDS011;62039;50.000;9.064;2023-06-24T00:00:24;2.43;;;2.23;;
73733;SDS011;62039;50.000;9.064;2023-06-24T00:02:51;2.73;;;2.53;;
73733;SDS011;62039;50.000;9.064;2023-06-24T00:05:18;2.53;;;2.33;;
73733;SDS011;62039;50.000;9.064;2023-06-24T00:07:48;2.57;;;2.37;;
73733;SDS011;62039;50.000;9.064;2023-06-24T00:10:15;2.77;;;2.30;;
73733;SDS011;62039;50.000;9.064;2023-06-24T00:12:57;3.10;;;2.80;;
73733;SDS011;62039;50.000;9.064;2023-06-24T00:15:24;4.57;;;2.43;;
73733;SDS011;62039;50.000;9.064;2023-06-24T00:17:51;2.80;;;2.60;;
73733;SDS011;62039;50.000;9.064;2023-06-24T00:20:18;3.70;;;2.53;;
73733;SDS011;62039;50.000;9.064;2023-06-24T00:22:48;2.90;;;2.60;;
73733;SDS011;62039;50.000;9.064;2023-06-24T00:25:15;2.63;;;2.43;;
73733;SDS011;62039;50.000;9.064;2023-06-24T00:27:42;2.80;;;2.50;;
73733;SDS011;62039;50.000;9.064;2023-06-24T00:30:10;3.00;;;2.77;;
73733;SDS011;62039;50.000;9.064;2023-06-24T00:32:37;3.23;;;2.93;;
73733;SDS011;62039;50.000;9.064;2023-06-24T00:35:05;2.93;;;2.60;;
73733;SDS011;62039;50.000;9.064;2023-06-24T00:37:32;2.30;;;2.10;;
73733;SDS011;62039;50.000;9.064;2023-06-24T00:40:02;2.50;;;2.30;;
73733;SDS011;62039;50.000;9.064;2023-06-24T00:42:30;2.57;;;2.37;;
73733;SDS011;62039;50.000;9.064;2023-06-24T00:44:57;3.40;;;2.57;;
73733;SDS011;62039;50.000;9.064;2023-06-24T00:47:25;2.80;;;2.60;;
73733;SDS011;62039;50.000;9.064;2023-06-24T00:49:52;2.40;;;2.20;;
73733;SDS011;62039;50.000;9.064;2023-06-24T00:52:19;3.00;;;2.70;;
73733;SDS011;62039;50.000;9.064;2023-06-24T00:54:46;2.60;;;2.37;;
73733;SDS011;62039;50.000;9.064;2023-06-24T00:57:16;2.70;;;2.50;;
73733;SDS011;62039;50.000;9.064;2023-06-24T00:59:46;2.80;;;2.60;;
73733;SDS011;62039;50.000;9.064;2023-06-24T01:02:14;2.90;;;2.70;;
73733;SDS011;62039;50.000;9.064;2023-06-24T01:04:40;2.93;;;2.30;;
73733;SDS011;62039;50.000;9.064;2023-06-24T01:07:08;2.83;;;2.40;;
73733;SDS011;62039;50.000;9.064;2023-06-24T01:09:35;3.73;;;2.80;;
73733;SDS011;62039;50.000;9.064;2023-06-24T01:12:02;2.80;;;2.60;;
73733;SDS011;62039;50.000;9.064;2023-06-24T01:14:32;2.70;;;2.50;;
73733;SDS011;62039;50.000;9.064;2023-06-24T01:17:02;2.63;;;2.43;;
73733;SDS011;62039;50.000;9.064;2023-06-24T01:19:49;2.33;;;2.13;;
73733;SDS011;62039;50.000;9.064;2023-06-24T01:22:31;3.00;;;2.70;;
73733;SDS011;62039;50.000;9.064;2023-06-24T01:25:28;3.10;;;2.90;;
73733;SDS011;62039;50.000;9.064;2023-06-24T01:28:20;2.57;;;2.37;;
73733;SDS011;62039;50.000;9.064;2023-06-24T01:33:52;3.20;;;2.60;;
73733;SDS011;62039;50.000;9.064;2023-06-24T01:36:25;2.97;;;2.77;;
73733;SDS011;62039;50.000;9.064;2023-06-24T01:38:55;2.80;;;2.60;;
73733;SDS011;62039;50.000;9.064;2023-06-24T01:41:26;2.57;;;2.37;;
73733;SDS011;62039;50.000;9.064;2023-06-24T01:43:58;2.47;;;2.27;;
73733;SDS011;62039;50.000;9.064;2023-06-24T01:46:29;2.70;;;2.50;;
73733;SDS011;62039;50.000;9.064;2023-06-24T01:48:58;2.60;;;2.40;;
73733;SDS011;62039;50.000;9.064;2023-06-24T01:51:27;2.57;;;2.37;;
73733;SDS011;62039;50.000;9.064;2023-06-24T01:53:58;3.03;;;2.80;;
73733;SDS011;62039;50.000;9.064;2023-06-24T01:56:27;2.80;;;2.60;;
73733;SDS011;62039;50.000;9.064;2023-06-24T01:58:55;2.63;;;2.37;;
73733;SDS011;62039;50.000;9.064;2023-06-24T02:01:25;2.70;;;2.40;;
73733;SDS011;62039;50.000;9.064;2023-06-24T02:03:55;3.10;;;2.80;;
73733;SDS011;62039;50.000;9.064;2023-06-24T02:06:23;2.83;;;2.50;;
73733;SDS011;62039;50.000;9.064;2023-06-24T02:08:53;2.90;;;2.60;;
73733;SDS011;62039;50.000;9.064;2023-06-24T02:11:21;2.77;;;2.57;;
73733;SDS011;62039;50.000;9.064;2023-06-24T02:13:50;2.80;;;2.60;;
73733;SDS011;62039;50.000;9.064;2023-06-24T02:16:19;3.00;;;2.70;;
73733;SDS011;62039;50.000;9.064;2023-06-24T02:18:47;3.03;;;2.73;;
73733;SDS011;62039;50.000;9.064;2023-06-24T02:21:18;2.63;;;2.30;;
73733;SDS011;62039;50.000;9.064;2023-06-24T02:23:45;2.77;;;2.53;;
73733;SDS011;62039;50.000;9.064;2023-06-24T02:26:13;2.90;;;2.60;;
73733;SDS011;62039;50.000;9.064;2023-06-24T02:28:41;3.53;;;2.73;;
73733;SDS011;62039;50.000;9.064;2023-06-24T02:31:10;3.00;;;2.80;;
73733;SDS011;62039;50.000;9.064;2023-06-24T02:33:39;3.70;;;2.87;;
73733;SDS011;62039;50.000;9.064;2023-06-24T02:36:06;2.93;;;2.60;;
73733;SDS011;62039;50.000;9.064;2023-06-24T02:38:36;3.13;;;2.70;;
73733;SDS011;62039;50.000;9.064;2023-06-24T02:41:03;3.00;;;2.80;;
73733;SDS011;62039;50.000;9.064;2023-06-24T02:43:30;2.90;;;2.67;;
73733;SDS011;62039;50.000;9.064;2023-06-24T02:45:57;2.63;;;2.43;;
73733;SDS011;62039;50.000;9.064;2023-06-24T02:48:26;3.00;;;2.70;;
73733;SDS011;62039;50.000;9.064;2023-06-24T02:50:54;2.63;;;2.43;;
73733;SDS011;62039;50.000;9.064;2023-06-24T02:53:22;2.60;;;2.37;;
73733;SDS011;62039;50.000;9.064;2023-06-24T02:55:51;2.60;;;2.40;;
73733;SDS011;62039;50.000;9.064;2023-06-24T02:58:20;2.77;;;2.57;;
73733;SDS011;62039;50.000;9.064;2023-06-24T03:00:48;3.13;;;2.83;;
73733;SDS011;62039;50.000;9.064;2023-06-24T03:03:15;2.77;;;2.57;;
73733;SDS011;62039;50.000;9.064;2023-06-24T03:05:43;2.50;;;2.30;;
73733;SDS011;62039;50.000;9.064;2023-06-24T03:08:11;3.50;;;2.80;;
73733;SDS011;62039;50.000;9.064;2023-06-24T03:10:39;2.87;;;2.67;;
73733;SDS011;62039;50.000;9.064;2023-06-24T03:13:09;3.07;;;2.77;;
73733;SDS011;62039;50.000;9.064;2023-06-24T03:15:35;3.47;;;2.63;;
73733;SDS011;62039;50.000;9.064;2023-06-24T03:18:02;3.23;;;2.93;;
73733;SDS011;62039;50.000;9.064;2023-06-24T03:20:29;3.03;;;2.73;;
73733;SDS011;62039;50.000;9.064;2023-06-24T03:22:56;3.10;;;2.80;;
73733;SDS011;62039;50.000;9.064;2023-06-24T03:25:23;3.03;;;2.80;;
73733;SDS011;62039;50.000;9.064;2023-06-24T03:27:50;2.90;;;2.70;;
73733;SDS011;62039;50.000;9.064;2023-06-24T03:30:20;3.20;;;2.80;;
73733;SDS011;62039;50.000;9.064;2023-06-24T03:32:47;3.70;;;2.90;;
73733;SDS011;62039;50.000;9.064;2023-06-24T03:35:14;3.17;;;2.87;;
73733;SDS011;62039;50.000;9.064;2023-06-24T03:37:41;3.23;;;2.93;;
73733;SDS011;62039;50.000;9.064;2023-06-24T03:40:08;3.53;;;3.00;;
73733;SDS011;62039;50.000;9.064;2023-06-24T03:42:36;3.13;;;2.53;;
73733;SDS011;62039;50.000;9.064;2023-06-24T03:45:03;3.20;;;2.90;;
73733;SDS011;62039;50.000;9.064;2023-06-24T03:47:33;3.30;;;3.00;;
73733;SDS011;62039;50.000;9.064;2023-06-24T03:50:00;2.87;;;2.67;;
73733;SDS011;62039;50.000;9.064;2023-06-24T03:52:27;3.37;;;2.40;;
73733;SDS011;62039;50.000;9.064;2023-06-24T03:54:54;2.80;;;2.57;;
73733;SDS011;62039;50.000;9.064;2023-06-24T03:57:21;3.13;;;2.83;;
73733;SDS011;62039;50.000;9.064;2023-06-24T03:59:48;3.27;;;2.93;;
73733;SDS011;62039;50.000;9.064;2023-06-24T04:02:15;3.10;;;2.90;;
73733;SDS011;62039;50.000;9.064;2023-06-24T04:04:44;3.17;;;2.87;;
73733;SDS011;62039;50.000;9.064;2023-06-24T04:07:11;3.10;;;2.90;;
73733;SDS011;62039;50.000;9.064;2023-06-24T04:09:38;3.27;;;2.80;;
73733;SDS011;62039;50.000;9.064;2023-06-24T04:12:06;3.00;;;2.63;;
73733;SDS011;62039;50.000;9.064;2023-06-24T04:14:33;4.13;;;2.70;;
73733;SDS011;62039;50.000;9.064;2023-06-24T04:17:00;2.63;;;2.43;;
73733;SDS011;62039;50.000;9.064;2023-06-24T04:19:27;3.20;;;2.73;;
73733;SDS011;62039;50.000;9.064;2023-06-24T04:21:57;2.83;;;2.47;;
73733;SDS011;62039;50.000;9.064;2023-06-24T04:24:24;2.70;;;2.50;;
73733;SDS011;62039;50.000;9.064;2023-06-24T04:26:50;2.57;;;2.37;;
73733;SDS011;62039;50.000;9.064;2023-06-24T04:29:17;3.03;;;2.43;;
73733;SDS011;62039;50.000;9.064;2023-06-24T04:31:44;3.30;;;2.87;;
73733;SDS011;62039;50.000;9.064;2023-06-24T04:34:11;3.20;;;2.87;;
73733;SDS011;62039;50.000;9.064;2023-06-24T04:36:38;2.90;;;2.70;;
73733;SDS011;62039;50.000;9.064;2023-06-24T04:39:08;3.27;;;2.70;;
73733;SDS011;62039;50.000;9.064;2023-06-24T04:41:35;2.80;;;2.60;;
73733;SDS011;62039;50.000;9.064;2023-06-24T04:44:02;3.10;;;2.80;;
73733;SDS011;62039;50.000;9.064;2023-06-24T04:46:29;2.77;;;2.53;;
73733;SDS011;62039;50.000;9.064;2023-06-24T04:48:56;2.73;;;2.53;;
73733;SDS011;62039;50.000;9.064;2023-06-24T04:51:23;3.37;;;3.07;;
73733;SDS011;62039;50.000;9.064;2023-06-24T04:53:50;3.10;;;2.70;;
73733;SDS011;62039;50.000;9.064;2023-06-24T04:56:20;2.80;;;2.60;;
73733;SDS011;62039;50.000;9.064;2023-06-24T04:58:47;2.53;;;2.33;;
73733;SDS011;62039;50.000;9.064;2023-06-24T05:01:15;2.90;;;2.57;;
73733;SDS011;62039;50.000;9.064;2023-06-24T05:03:44;3.37;;;2.70;;
73733;SDS011;62039;50.000;9.064;2023-06-24T05:06:10;2.80;;;2.60;;
73733;SDS011;62039;50.000;9.064;2023-06-24T05:08:37;2.77;;;2.57;;
73733;SDS011;62039;50.000;9.064;2023-06-24T05:11:04;2.63;;;2.43;;
73733;SDS011;62039;50.000;9.064;2023-06-24T05:13:34;2.50;;;2.30;;
73733;SDS011;62039;50.000;9.064;2023-06-24T05:16:01;2.70;;;2.43;;
73733;SDS011;62039;50.000;9.064;2023-06-24T05:18:28;2.60;;;2.40;;
73733;SDS011;62039;50.000;9.064;2023-06-24T05:20:55;2.77;;;2.57;;
73733;SDS011;62039;50.000;9.064;2023-06-24T05:23:22;2.60;;;2.40;;
73733;SDS011;62039;50.000;9.064;2023-06-24T05:25:49;2.53;;;2.33;;
73733;SDS011;62039;50.000;9.064;2023-06-24T05:28:16;2.30;;;2.10;;
73733;SDS011;62039;50.000;9.064;2023-06-24T05:30:46;2.60;;;2.40;;
73733;SDS011;62039;50.000;9.064;2023-06-24T05:33:13;2.70;;;2.50;;
73733;SDS011;62039;50.000;9.064;2023-06-24T05:35:40;3.30;;;2.33;;
73733;SDS011;62039;50.000;9.064;2023-06-24T05:38:08;2.53;;;2.33;;
73733;SDS011;62039;50.000;9.064;2023-06-24T05:40:36;3.10;;;2.80;;
73733;SDS011;62039;50.000;9.064;2023-06-24T05:43:02;2.20;;;2.00;;
73733;SDS011;62039;50.000;9.064;2023-06-24T05:45:29;2.87;;;2.60;;
73733;SDS011;62039;50.000;9.064;2023-06-24T05:47:59;2.37;;;2.17;;
73733;SDS011;62039;50.000;9.064;2023-06-24T05:50:26;2.57;;;2.37;;
73733;SDS011;62039;50.000;9.064;2023-06-24T05:52:53;2.80;;;2.60;;
73733;SDS011;62039;50.000;9.064;2023-06-24T05:55:20;2.57;;;2.37;;
73733;SDS011;62039;50.000;9.064;2023-06-24T05:57:47;2.23;;;2.03;;
73733;SDS011;62039;50.000;9.064;2023-06-24T06:00:14;3.67;;;2.73;;
73733;SDS011;62039;50.000;9.064;2023-06-24T06:02:41;3.20;;;2.50;;
73733;SDS011;62039;50.000;9.064;2023-06-24T06:05:11;2.47;;;2.27;;
73733;SDS011;62039;50.000;9.064;2023-06-24T06:07:38;2.80;;;2.47;;
73733;SDS011;62039;50.000;9.064;2023-06-24T06:10:06;2.30;;;2.10;;
73733;SDS011;62039;50.000;9.064;2023-06-24T06:12:33;2.83;;;2.60;;
73733;SDS011;62039;50.000;9.064;2023-06-24T06:15:00;2.73;;;2.50;;
73733;SDS011;62039;50.000;9.064;2023-06-24T06:17:27;2.70;;;2.50;;
73733;SDS011;62039;50.000;9.064;2023-06-24T06:19:54;2.50;;;2.30;;
73733;SDS011;62039;50.000;9.064;2023-06-24T06:22:24;2.80;;;2.60;;
73733;SDS011;62039;50.000;9.064;2023-06-24T06:24:51;2.40;;;2.20;;
73733;SDS011;62039;50.000;9.064;2023-06-24T06:27:18;2.73;;;2.50;;
73733;SDS011;62039;50.000;9.064;2023-06-24T06:29:46;2.87;;;2.67;;
73733;SDS011;62039;50.000;9.064;2023-06-24T06:32:13;2.83;;;2.53;;
73733;SDS011;62039;50.000;9.064;2023-06-24T06:34:40;2.70;;;2.47;;
73733;SDS011;62039;50.000;9.064;2023-06-24T06:37:07;2.57;;;2.37;;
73733;SDS011;62039;50.000;9.064;2023-06-24T06:39:36;2.80;;;2.57;;
73733;SDS011;62039;50.000;9.064;2023-06-24T06:42:04;2.80;;;2.50;;
73733;SDS011;62039;50.000;9.064;2023-06-24T06:44:31;2.50;;;2.30;;
73733;SDS011;62039;50.000;9.064;2023-06-24T06:46:58;2.70;;;2.50;;
73733;SDS011;62039;50.000;9.064;2023-06-24T06:49:25;2.70;;;2.50;;
73733;SDS011;62039;50.000;9.064;2023-06-24T06:51:53;2.73;;;2.53;;
73733;SDS011;62039;50.000;9.064;2023-06-24T06:54:21;2.80;;;2.60;;
73733;SDS011;62039;50.000;9.064;2023-06-24T06:56:50;2.47;;;2.27;;
73733;SDS011;62039;50.000;9.064;2023-06-24T06:59:17;2.23;;;2.13;;
73733;SDS011;62039;50.000;9.064;2023-06-24T07:01:44;2.33;;;2.13;;
73733;SDS011;62039;50.000;9.064;2023-06-24T07:04:11;3.13;;;2.70;;
73733;SDS011;62039;50.000;9.064;2023-06-24T07:06:38;3.67;;;2.97;;
73733;SDS011;62039;50.000;9.064;2023-06-24T07:09:05;2.77;;;2.50;;
73733;SDS011;62039;50.000;9.064;2023-06-24T07:11:32;3.33;;;3.03;;
73733;SDS011;62039;50.000;9.064;2023-06-24T07:14:02;3.43;;;3.13;;
73733;SDS011;62039;50.000;9.064;2023-06-24T07:16:29;3.37;;;3.17;;
73733;SDS011;62039;50.000;9.064;2023-06-24T07:18:56;2.83;;;2.63;;
73733;SDS011;62039;50.000;9.064;2023-06-24T07:21:23;3.73;;;3.40;;
73733;SDS011;62039;50.000;9.064;2023-06-24T07:23:50;4.47;;;4.07;;
73733;SDS011;62039;50.000;9.064;2023-06-24T07:26:17;3.40;;;3.10;;
73733;SDS011;62039;50.000;9.064;2023-06-24T07:28:44;3.30;;;3.00;;
73733;SDS011;62039;50.000;9.064;2023-06-24T07:31:35;3.23;;;2.93;;
73733;SDS011;62039;50.000;9.064;2023-06-24T07:34:03;3.13;;;2.67;;
73733;SDS011;62039;50.000;9.064;2023-06-24T07:36:30;4.47;;;2.90;;
73733;SDS011;62039;50.000;9.064;2023-06-24T07:38:57;2.90;;;2.70;;
73733;SDS011;62039;50.000;9.064;2023-06-24T07:41:24;3.13;;;2.73;;
73733;SDS011;62039;50.000;9.064;2023-06-24T07:43:51;2.77;;;2.57;;
73733;SDS011;62039;50.000;9.064;2023-06-24T07:46:17;2.70;;;2.50;;
73733;SDS011;62039;50.000;9.064;2023-06-24T07:48:47;3.70;;;3.00;;
73733;SDS011;62039;50.000;9.064;2023-06-24T07:51:14;3.80;;;3.50;;
73733;SDS011;62039;50.000;9.064;2023-06-24T07:53:41;3.00;;;2.80;;
73733;SDS011;62039;50.000;9.064;2023-06-24T07:56:08;2.70;;;2.50;;
73733;SDS011;62039;50.000;9.064;2023-06-24T07:58:35;3.80;;;3.50;;
73733;SDS011;62039;50.000;9.064;2023-06-24T08:01:02;2.77;;;2.57;;
73733;SDS011;62039;50.000;9.064;2023-06-24T08:03:29;3.20;;;2.90;;
73733;SDS011;62039;50.000;9.064;2023-06-24T08:05:59;3.17;;;2.87;;
73733;SDS011;62039;50.000;9.064;2023-06-24T08:08:26;3.33;;;3.03;;
73733;SDS011;62039;50.000;9.064;2023-06-24T08:10:53;3.57;;;3.27;;
73733;SDS011;62039;50.000;9.064;2023-06-24T08:13:20;2.80;;;2.40;;
73733;SDS011;62039;50.000;9.064;2023-06-24T08:15:47;2.63;;;2.43;;
73733;SDS011;62039;50.000;9.064;2023-06-24T08:18:14;2.83;;;2.60;;
73733;SDS011;62039;50.000;9.064;2023-06-24T08:20:42;3.67;;;3.37;;
73733;SDS011;62039;50.000;9.064;2023-06-24T08:23:11;3.43;;;3.13;;
73733;SDS011;62039;50.000;9.064;2023-06-24T08:25:38;3.30;;;3.00;;
73733;SDS011;62039;50.000;9.064;2023-06-24T08:28:05;3.67;;;3.37;;
73733;SDS011;62039;50.000;9.064;2023-06-24T08:30:32;2.90;;;2.70;;
73733;SDS011;62039;50.000;9.064;2023-06-24T08:32:59;2.97;;;2.77;;
73733;SDS011;62039;50.000;9.064;2023-06-24T08:35:26;3.40;;;3.20;;
73733;SDS011;62039;50.000;9.064;2023-06-24T08:37:53;3.47;;;3.17;;
73733;SDS011;62039;50.000;9.064;2023-06-24T08:40:23;3.53;;;3.23;;
73733;SDS011;62039;50.000;9.064;2023-06-24T08:42:50;2.77;;;2.57;;
73733;SDS011;62039;50.000;9.064;2023-06-24T08:45:17;3.23;;;2.93;;
73733;SDS011;62039;50.000;9.064;2023-06-24T08:47:44;2.77;;;2.57;;
73733;SDS011;62039;50.000;9.064;2023-06-24T08:50:13;2.80;;;2.60;;
73733;SDS011;62039;50.000;9.064;2023-06-24T08:52:42;2.17;;;2.07;;
73733;SDS011;62039;50.000;9.064;2023-06-24T08:55:16;2.73;;;2.53;;
73733;SDS011;62039;50.000;9.064;2023-06-24T08:57:46;2.23;;;2.03;;
73733;SDS011;62039;50.000;9.064;2023-06-24T09:00:13;2.67;;;2.47;;
73733;SDS011;62039;50.000;9.064;2023-06-24T09:02:41;2.20;;;2.10;;
73733;SDS011;62039;50.000;9.064;2023-06-24T09:05:09;2.43;;;2.17;;
73733;SDS011;62039;50.000;9.064;2023-06-24T09:07:36;2.53;;;2.33;;
73733;SDS011;62039;50.000;9.064;2023-06-24T09:10:03;3.00;;;2.80;;
73733;SDS011;62039;50.000;9.064;2023-06-24T09:12:31;2.60;;;2.40;;
73733;SDS011;62039;50.000;9.064;2023-06-24T09:15:02;2.87;;;2.57;;
73733;SDS011;62039;50.000;9.064;2023-06-24T09:17:29;2.50;;;2.30;;
73733;SDS011;62039;50.000;9.064;2023-06-24T09:20:02;2.40;;;2.20;;
73733;SDS011;62039;50.000;9.064;2023-06-24T09:22:30;2.70;;;2.50;;
73733;SDS011;62039;50.000;9.064;2023-06-24T09:24:57;3.17;;;2.53;;
73733;SDS011;62039;50.000;9.064;2023-06-24T09:27:30;3.20;;;2.80;;
73733;SDS011;62039;50.000;9.064;2023-06-24T09:29:58;2.80;;;2.60;;
73733;SDS011;62039;50.000;9.064;2023-06-24T09:32:29;2.17;;;2.03;;
73733;SDS011;62039;50.000;9.064;2023-06-24T09:34:56;3.03;;;2.60;;
73733;SDS011;62039;50.000;9.064;2023-06-24T09:37:24;3.00;;;2.80;;
73733;SDS011;62039;50.000;9.064;2023-06-24T09:39:51;2.80;;;2.60;;
73733;SDS011;62039;50.000;9.064;2023-06-24T09:42:20;2.70;;;2.50;;
73733;SDS011;62039;50.000;9.064;2023-06-24T09:44:52;2.97;;;2.67;;
73733;SDS011;62039;50.000;9.064;2023-06-24T09:47:19;2.63;;;2.43;;
73733;SDS011;62039;50.000;9.064;2023-06-24T09:49:49;2.57;;;2.37;;
73733;SDS011;62039;50.000;9.064;2023-06-24T09:52:16;3.10;;;2.90;;
73733;SDS011;62039;50.000;9.064;2023-06-24T09:54:44;2.20;;;2.00;;
73733;SDS011;62039;50.000;9.064;2023-06-24T09:57:13;2.33;;;2.23;;
73733;SDS011;62039;50.000;9.064;2023-06-24T09:59:41;2.30;;;2.10;;
73733;SDS011;62039;50.000;9.064;2023-06-24T10:02:08;2.53;;;2.20;;
73733;SDS011;62039;50.000;9.064;2023-06-24T10:04:41;2.10;;;2.00;;
73733;SDS011;62039;50.000;9.064;2023-06-24T10:07:12;2.57;;;2.37;;
73733;SDS011;62039;50.000;9.064;2023-06-24T10:09:40;2.60;;;2.40;;
73733;SDS011;62039;50.000;9.064;2023-06-24T10:12:07;2.47;;;2.27;;
73733;SDS011;62039;50.000;9.064;2023-06-24T10:14:35;2.40;;;2.20;;
73733;SDS011;62039;50.000;9.064;2023-06-24T10:17:03;2.43;;;2.23;;
73733;SDS011;62039;50.000;9.064;2023-06-24T10:19:30;2.40;;;2.20;;
73733;SDS011;62039;50.000;9.064;2023-06-24T10:22:06;2.77;;;2.30;;
73733;SDS011;62039;50.000;9.064;2023-06-24T10:24:37;2.70;;;2.20;;
73733;SDS011;62039;50.000;9.064;2023-06-24T10:27:07;2.00;;;1.90;;
73733;SDS011;62039;50.000;9.064;2023-06-24T10:29:36;2.42;;;2.22;;
73733;SDS011;62039;50.000;9.064;2023-06-24T10:32:04;2.50;;;2.30;;
73733;SDS011;62039;50.000;9.064;2023-06-24T10:34:41;2.50;;;2.25;;
73733;SDS011;62039;50.000;9.064;2023-06-24T10:37:10;2.20;;;2.00;;
73733;SDS011;62039;50.000;9.064;2023-06-24T10:39:45;1.80;;;1.70;;
73733;SDS011;62039;50.000;9.064;2023-06-24T10:47:47;2.30;;;2.05;;
73733;SDS011;62039;50.000;9.064;2023-06-24T10:50:15;2.00;;;1.90;;
73733;SDS011;62039;50.000;9.064;2023-06-24T10:52:45;2.05;;;1.95;;
73733;SDS011;62039;50.000;9.064;2023-06-24T10:55:17;2.10;;;2.00;;
73733;SDS011;62039;50.000;9.064;2023-06-24T10:57:44;1.83;;;1.73;;
73733;SDS011;62039;50.000;9.064;2023-06-24T11:00:12;1.90;;;1.80;;
73733;SDS011;62039;50.000;9.064;2023-06-24T11:02:41;2.15;;;1.95;;
73733;SDS011;62039;50.000;9.064;2023-06-24T11:22:10;3.10;;;2.80;;
73733;SDS011;62039;50.000;9.064;2023-06-24T11:24:37;2.20;;;2.10;;
73733;SDS011;62039;50.000;9.064;2023-06-24T11:27:04;2.15;;;1.95;;
73733;SDS011;62039;50.000;9.064;2023-06-24T11:29:32;2.08;;;1.92;;
73733;SDS011;62039;50.000;9.064;2023-06-24T11:32:00;2.75;;;2.55;;
73733;SDS011;62039;50.000;9.064;2023-06-24T11:34:28;2.33;;;2.20;;
73733;SDS011;62039;50.000;9.064;2023-06-24T11:36:55;2.50;;;2.30;;
73733;SDS011;62039;50.000;9.064;2023-06-24T11:39:25;2.30;;;2.10;;
73733;SDS011;62039;50.000;9.064;2023-06-24T11:41:53;2.50;;;2.30;;
73733;SDS011;62039;50.000;9.064;2023-06-24T11:44:23;1.88;;;1.77;;
73733;SDS011;62039;50.000;9.064;2023-06-24T11:46:51;2.70;;;1.92;;
73733;SDS011;62039;50.000;9.064;2023-06-24T11:49:18;2.30;;;2.10;;
73733;SDS011;62039;50.000;9.064;2023-06-24T11:51:46;2.30;;;2.10;;
73733;SDS011;62039;50.000;9.064;2023-06-24T11:54:15;4.07;;;2.47;;
73733;SDS011;62039;50.000;9.064;2023-06-24T11:56:49;2.10;;;2.00;;
73733;SDS011;62039;50.000;9.064;2023-06-24T11:59:17;2.15;;;2.05;;
73733;SDS011;62039;50.000;9.064;2023-06-24T12:01:45;2.00;;;1.90;;
73733;SDS011;62039;50.000;9.064;2023-06-24T12:04:18;2.03;;;1.80;;
73733;SDS011;62039;50.000;9.064;2023-06-24T12:06:45;1.95;;;1.85;;
73733;SDS011;62039;50.000;9.064;2023-06-24T12:09:12;2.00;;;1.90;;
73733;SDS011;62039;50.000;9.064;2023-06-24T12:11:39;1.73;;;1.63;;
73733;SDS011;62039;50.000;9.064;2023-06-24T12:14:09;1.92;;;1.83;;
73733;SDS011;62039;50.000;9.064;2023-06-24T12:16:36;2.13;;;1.77;;
73733;SDS011;62039;50.000;9.064;2023-06-24T12:19:04;1.95;;;1.75;;
73733;SDS011;62039;50.000;9.064;2023-06-24T12:21:31;1.98;;;1.88;;
73733;SDS011;62039;50.000;9.064;2023-06-24T12:23:58;1.95;;;1.85;;
73733;SDS011;62039;50.000;9.064;2023-06-24T12:26:25;2.30;;;2.10;;
73733;SDS011;62039;50.000;9.064;2023-06-24T12:28:53;2.70;;;2.47;;
73733;SDS011;62039;50.000;9.064;2023-06-24T12:31:23;2.00;;;1.85;;
73733;SDS011;62039;50.000;9.064;2023-06-24T12:33:51;1.73;;;1.63;;
73733;SDS011;62039;50.000;9.064;2023-06-24T12:36:18;2.28;;;2.10;;
73733;SDS011;62039;50.000;9.064;2023-06-24T12:38:45;2.05;;;1.88;;
73733;SDS011;62039;50.000;9.064;2023-06-24T12:41:12;2.30;;;2.10;;
73733;SDS011;62039;50.000;9.064;2023-06-24T12:43:39;2.63;;;2.42;;
73733;SDS011;62039;50.000;9.064;2023-06-24T12:46:06;2.95;;;2.63;;
73733;SDS011;62039;50.000;9.064;2023-06-24T12:48:36;2.40;;;2.20;;
73733;SDS011;62039;50.000;9.064;2023-06-24T12:51:03;2.15;;;1.95;;
73733;SDS011;62039;50.000;9.064;2023-06-24T12:53:30;2.30;;;2.10;;
73733;SDS011;62039;50.000;9.064;2023-06-24T12:55:57;2.13;;;2.00;;
73733;SDS011;62039;50.000;9.064;2023-06-24T12:58:24;2.60;;;2.40;;
73733;SDS011;62039;50.000;9.064;2023-06-24T13:00:51;2.35;;;2.17;;
73733;SDS011;62039;50.000;9.064;2023-06-24T13:03:18;2.05;;;1.95;;
73733;SDS011;62039;50.000;9.064;2023-06-24T13:05:48;1.67;;;1.58;;
73733;SDS011;62039;50.000;9.064;2023-06-24T13:08:15;2.00;;;1.80;;
73733;SDS011;62039;50.000;9.064;2023-06-24T13:10:42;1.77;;;1.67;;
73733;SDS011;62039;50.000;9.064;2023-06-24T13:13:09;2.40;;;2.20;;
73733;SDS011;62039;50.000;9.064;2023-06-24T13:15:36;2.08;;;1.98;;
73733;SDS011;62039;50.000;9.064;2023-06-24T13:18:03;1.98;;;1.88;;
73733;SDS011;62039;50.000;9.064;2023-06-24T13:33:41;2.05;;;1.95;;
73733;SDS011;62039;50.000;9.064;2023-06-24T13:36:09;2.10;;;1.90;;
73733;SDS011;62039;50.000;9.064;2023-06-24T13:38:52;2.05;;;1.95;;
73733;SDS011;62039;50.000;9.064;2023-06-24T13:41:19;2.20;;;1.98;;
73733;SDS011;62039;50.000;9.064;2023-06-24T13:43:46;2.03;;;1.90;;
73733;SDS011;62039;50.000;9.064;2023-06-24T13:46:13;2.53;;;2.33;;
73733;SDS011;62039;50.000;9.064;2023-06-24T13:48:42;2.00;;;1.90;;
73733;SDS011;62039;50.000;9.064;2023-06-24T13:51:09;1.88;;;1.77;;
73733;SDS011;62039;50.000;9.064;2023-06-24T13:53:36;1.90;;;1.80;;
73733;SDS011;62039;50.000;9.064;2023-06-24T13:56:03;2.05;;;1.95;;
73733;SDS011;62039;50.000;9.064;2023-06-24T13:58:30;2.00;;;1.90;;
73733;SDS011;62039;50.000;9.064;2023-06-24T14:00:57;2.13;;;1.95;;
73733;SDS011;62039;50.000;9.064;2023-06-24T14:03:24;1.90;;;1.80;;
73733;SDS011;62039;50.000;9.064;2023-06-24T14:05:54;2.17;;;2.00;;
73733;SDS011;62039;50.000;9.064;2023-06-24T14:08:21;1.90;;;1.80;;
73733;SDS011;62039;50.000;9.064;2023-06-24T14:10:48;2.30;;;2.10;;
73733;SDS011;62039;50.000;9.064;2023-06-24T14:13:15;1.83;;;1.73;;
73733;SDS011;62039;50.000;9.064;2023-06-24T14:15:42;1.85;;;1.75;;
73733;SDS011;62039;50.000;9.064;2023-06-24T14:18:09;1.98;;;1.88;;
73733;SDS011;62039;50.000;9.064;2023-06-24T14:20:36;2.00;;;1.77;;
73733;SDS011;62039;50.000;9.064;2023-06-24T14:23:06;2.00;;;1.90;;
73733;SDS011;62039;50.000;9.064;2023-06-24T14:25:33;2.25;;;2.08;;
73733;SDS011;62039;50.000;9.064;2023-06-24T14:28:00;2.30;;;2.10;;
73733;SDS011;62039;50.000;9.064;2023-06-24T14:30:27;2.00;;;1.90;;
73733;SDS011;62039;50.000;9.064;2023-06-24T14:32:54;1.92;;;1.83;;
73733;SDS011;62039;50.000;9.064;2023-06-24T14:35:21;1.90;;;1.80;;
73733;SDS011;62039;50.000;9.064;2023-06-24T14:37:48;2.10;;;1.90;;
73733;SDS011;62039;50.000;9.064;2023-06-24T14:40:17;2.03;;;1.92;;
73733;SDS011;62039;50.000;9.064;2023-06-24T14:42:44;2.03;;;1.90;;
73733;SDS011;62039;50.000;9.064;2023-06-24T14:45:12;2.35;;;2.15;;
73733;SDS011;62039;50.000;9.064;2023-06-24T14:47:39;1.80;;;1.70;;
73733;SDS011;62039;50.000;9.064;2023-06-24T14:50:06;1.95;;;1.85;;
73733;SDS011;62039;50.000;9.064;2023-06-24T14:52:34;1.92;;;1.80;;
73733;SDS011;62039;50.000;9.064;2023-06-24T14:55:01;2.10;;;2.00;;
73733;SDS011;62039;50.000;9.064;2023-06-24T14:57:30;2.03;;;1.92;;
73733;SDS011;62039;50.000;9.064;2023-06-24T14:59:57;2.13;;;1.92;;
73733;SDS011;62039;50.000;9.064;2023-06-24T15:02:24;2.22;;;2.03;;
73733;SDS011;62039;50.000;9.064;2023-06-24T15:04:51;1.90;;;1.80;;
73733;SDS011;62039;50.000;9.064;2023-06-24T15:07:18;2.00;;;1.90;;
73733;SDS011;62039;50.000;9.064;2023-06-24T15:09:45;2.10;;;1.90;;
73733;SDS011;62039;50.000;9.064;2023-06-24T15:12:12;2.03;;;1.92;;
73733;SDS011;62039;50.000;9.064;2023-06-24T15:14:42;2.03;;;1.70;;
73733;SDS011;62039;50.000;9.064;2023-06-24T15:17:09;1.80;;;1.70;;
73733;SDS011;62039;50.000;9.064;2023-06-24T15:19:36;2.08;;;1.90;;
73733;SDS011;62039;50.000;9.064;2023-06-24T15:22:03;2.45;;;2.25;;
73733;SDS011;62039;50.000;9.064;2023-06-24T15:24:30;2.05;;;1.92;;
73733;SDS011;62039;50.000;9.064;2023-06-24T15:26:57;1.90;;;1.80;;
73733;SDS011;62039;50.000;9.064;2023-06-24T15:29:25;2.30;;;2.10;;
73733;SDS011;62039;50.000;9.064;2023-06-24T15:31:55;2.80;;;2.45;;